Extreme Winds @ TNCM [Right Now]

Server: *I don’t care, I recommend casual

Region: The global jokes are over, right?

Airport: TNCM

Time: Whatever time it is in zulu right now

NOTAM:This event may jnclude all of the following-

  • Crashing
  • Raging from crashing
  • Ghosting and violations if on expert and or training
    That is it. Good luck! We are all counting on you!

It is only 13knts right now…

2 Likes

Yeah, extreme winds…

METAR:
TNCM 281500Z 10012KT 050V140 9999 FEW020 BKN042 28/21 Q1019 NOSIG RMK A3010

17 Likes